Terminal Aerodrome Forecast
Issued by NWS

Home | Current Version | Previous Version | Graphics & Text | Print | Product List | Glossary On
Versions: 1 2 3 4 5 6 7 8 9 10 11 12 13 14
124
FTUS43 KUNR 142320
TAFGCC
TAF
KGCC 142320Z 1500/1524 30009KT P6SM OVC035
     FM150200 25005KT P6SM FEW250
     FM150500 21009KT P6SM FEW250
     FM151300 27010KT P6SM FEW250
     FM151800 31012G22KT P6SM FEW250
     FM152200 28008KT P6SM FEW250=

USA.gov is the U.S. government's official web portal to all federal, state and local government web resources and services.